Time;durP1;ratioP1;P1;durP2;ratioP2;P2;SDS_P1;SDS_P2;PMS_P1;PMS_P2;Temp;Humidity;BMP_temperature;BMP_pressure;BME280_temperature;BME280_humidity;BME280_pressure;Samples;Min_cycle;Max_cycle;Signal;HPM_P1;HPM_P2
2022/09/16 00:00:59;;;;;;;8.95;3.58;;;;;;;-141.48;100.00;69781.59;5203018;28;20033;-68
2022/09/16 00:03:31;;;;;;;3.83;3.05;;;;;;;-141.48;100.00;69781.59;5202670;28;20045;-68
2022/09/16 00:06:01;;;;;;;6.15;3.22;;;;;;;-141.48;100.00;69781.59;5203782;28;20096;-68
2022/09/16 00:08:32;;;;;;;2.65;2.38;;;;;;;-141.48;100.00;69781.59;5202889;28;20104;-68
2022/09/16 00:11:02;;;;;;;4.03;3.63;;;;;;;-141.48;100.00;69781.59;5202654;28;20083;-69
2022/09/16 00:13:32;;;;;;;5.63;3.17;;;;;;;-141.48;100.00;69781.59;5202745;28;20109;-69
2022/09/16 00:16:08;;;;;;;3.55;3.10;;;;;;;-141.48;100.00;69781.59;5206586;28;20443;-69
2022/09/16 00:18:38;;;;;;;5.10;3.35;;;;;;;-141.48;100.00;69781.59;5188693;28;20026;-69
2022/09/16 00:21:09;;;;;;;2.97;2.78;;;;;;;-141.48;100.00;69781.59;5206498;28;20040;-70
2022/09/16 00:23:39;;;;;;;3.97;2.72;;;;;;;-141.48;100.00;69781.59;5205485;28;20040;-70
2022/09/16 00:26:10;;;;;;;4.25;2.88;;;;;;;-141.48;100.00;69781.59;5206528;28;20018;-70
2022/09/16 00:28:40;;;;;;;2.83;2.45;;;;;;;-141.48;100.00;69781.59;5188431;28;20021;-70
2022/09/16 00:31:11;;;;;;;3.35;3.15;;;;;;;-141.48;100.00;69781.59;5206215;28;20053;-70
2022/09/16 00:33:41;;;;;;;4.18;3.80;;;;;;;-141.48;100.00;69781.59;5205951;28;20030;-70
2022/09/16 00:36:17;;;;;;;3.40;3.10;;;;;;;-141.48;100.00;69781.59;5206455;28;20092;-70
2022/09/16 00:38:53;;;;;;;4.05;3.78;;;;;;;-141.48;100.00;69781.59;5188204;28;20022;-71
2022/09/16 00:41:27;;;;;;;4.07;3.88;;;;;;;-141.48;100.00;69781.59;5205780;28;20448;-70
2022/09/16 00:44:04;;;;;;;3.83;3.28;;;;;;;-141.48;100.00;69781.59;5187899;28;20041;-71
2022/09/16 00:46:38;;;;;;;2.92;2.67;;;;;;;-141.48;100.00;69781.59;5206116;28;20100;-70
2022/09/16 00:49:23;;;;;;;5.25;4.13;;;;;;;-141.48;100.00;69781.59;5206017;28;20060;-70
2022/09/16 00:52:02;;;;;;;6.85;3.83;;;;;;;-141.48;100.00;69781.59;5206290;28;20543;-70
2022/09/16 00:54:34;;;;;;;3.00;2.90;;;;;;;-141.48;100.00;69781.59;5205460;28;20500;-71
2022/09/16 00:57:09;;;;;;;5.47;3.78;;;;;;;-141.48;100.00;69781.59;5188420;28;20068;-71
2022/09/16 00:59:44;;;;;;;4.18;2.50;;;;;;;-141.48;100.00;69781.59;5205903;28;20029;-72
2022/09/16 01:02:19;;;;;;;12.90;3.13;;;;;;;-141.48;100.00;69781.59;5206163;28;20108;-70
2022/09/16 01:04:56;;;;;;;2.78;2.35;;;;;;;-141.48;100.00;69781.59;5205828;28;20116;-70
2022/09/16 01:07:33;;;;;;;6.32;3.90;;;;;;;-141.48;100.00;69781.59;5205452;28;20052;-70
2022/09/16 01:10:04;;;;;;;4.18;3.78;;;;;;;-141.48;100.00;69781.59;5205876;28;20028;-70
2022/09/16 01:12:36;;;;;;;6.10;2.85;;;;;;;-141.48;100.00;69781.59;5206068;28;20539;-70
2022/09/16 01:15:07;;;;;;;3.75;2.20;;;;;;;-141.48;100.00;69781.59;5204976;28;20017;-69
2022/09/16 01:18:03;;;;;;;7.95;3.35;;;;;;;-141.48;100.00;69781.59;5205650;28;20026;-69
2022/09/16 01:20:58;;;;;;;3.33;3.20;;;;;;;-141.48;100.00;69781.59;5205868;28;20381;-72
2022/09/16 01:23:50;;;;;;;2.70;2.60;;;;;;;-141.48;100.00;69781.59;5205184;28;20037;-69
2022/09/16 01:26:38;;;;;;;5.22;4.25;;;;;;;-141.48;100.00;69781.59;5204987;28;20156;-70
2022/09/16 01:29:43;;;;;;;4.60;3.00;;;;;;;-141.48;100.00;69781.59;5205324;28;20030;-69
2022/09/16 01:32:41;;;;;;;4.65;3.28;;;;;;;-141.48;100.00;69781.59;5205393;28;20068;-69
2022/09/16 01:35:44;;;;;;;3.55;3.35;;;;;;;-141.48;100.00;69781.59;5204576;28;20029;-68
2022/09/16 01:38:37;;;;;;;6.00;4.38;;;;;;;-141.48;100.00;69781.59;5171431;28;20056;-68
2022/09/16 01:41:46;;;;;;;3.47;3.28;;;;;;;-141.48;100.00;69781.59;5205248;28;20164;-68
2022/09/16 01:44:25;;;;;;;12.02;4.65;;;;;;;-141.48;100.00;69781.59;5204447;28;20516;-69
2022/09/16 01:46:58;;;;;;;4.53;2.78;;;;;;;-141.48;100.00;69781.59;5205220;28;20025;-69
2022/09/16 01:49:42;;;;;;;6.63;4.13;;;;;;;-141.48;100.00;69781.59;5185221;28;20021;-69
2022/09/16 01:52:19;;;;;;;3.25;3.10;;;;;;;-141.48;100.00;69781.59;5204766;28;20083;-69
2022/09/16 01:55:01;;;;;;;5.28;2.97;;;;;;;-141.48;100.00;69781.59;5204223;28;20493;-69
2022/09/16 01:57:52;;;;;;;9.82;3.03;;;;;;;-141.48;100.00;69781.59;5204992;28;20017;-69
2022/09/16 02:00:23;;;;;;;3.33;2.53;;;;;;;-141.48;100.00;69781.59;5205215;28;20079;-69
2022/09/16 02:03:10;;;;;;;10.68;3.72;;;;;;;-141.48;100.00;69781.59;5205122;28;20044;-69
2022/09/16 02:05:53;;;;;;;3.92;2.63;;;;;;;-141.48;100.00;69781.59;5204066;28;20024;-69
2022/09/16 02:08:39;;;;;;;9.32;2.78;;;;;;;-141.48;100.00;69781.59;5204564;28;20033;-68
2022/09/16 02:11:13;;;;;;;3.55;3.35;;;;;;;-141.48;100.00;69781.59;5204822;28;20033;-69
2022/09/16 02:14:05;;;;;;;3.58;2.33;;;;;;;-141.48;100.00;69781.59;5204231;28;20421;-69
2022/09/16 02:16:58;;;;;;;3.10;2.90;;;;;;;-141.48;100.00;69781.59;5203638;28;20696;-69
2022/09/16 02:20:00;;;;;;;4.57;2.67;;;;;;;-141.48;100.00;69781.59;5204420;28;20037;-73
2022/09/16 02:22:37;;;;;;;5.60;3.08;;;;;;;-141.48;100.00;69781.59;5183367;28;20037;-69
2022/09/16 02:25:10;;;;;;;5.50;3.05;;;;;;;-141.48;100.00;69781.59;5204257;28;20060;-69
2022/09/16 02:27:44;;;;;;;3.05;2.58;;;;;;;-141.48;100.00;69781.59;5204929;28;20021;-69
2022/09/16 02:30:18;;;;;;;7.35;2.97;;;;;;;-141.48;100.00;69781.59;5204681;28;20109;-69
2022/09/16 02:33:04;;;;;;;5.53;3.05;;;;;;;-141.48;100.00;69781.59;5186685;28;20032;-69
2022/09/16 02:35:37;;;;;;;4.10;2.67;;;;;;;-141.48;100.00;69781.59;5203914;28;20063;-69
2022/09/16 02:38:16;;;;;;;5.95;3.25;;;;;;;-141.48;100.00;69781.59;5203633;28;20045;-68
2022/09/16 02:40:51;;;;;;;3.78;3.47;;;;;;;-141.48;100.00;69781.59;5204472;28;20029;-68
2022/09/16 02:43:23;;;;;;;3.80;2.63;;;;;;;-141.48;100.00;69781.59;5185747;28;20060;-69
2022/09/16 02:46:28;;;;;;;6.10;3.05;;;;;;;-141.48;100.00;69781.59;5186394;28;20060;-68
2022/09/16 02:49:09;;;;;;;4.10;2.55;;;;;;;-141.48;100.00;69781.59;5204020;28;20036;-68
2022/09/16 02:51:54;;;;;;;7.55;2.80;;;;;;;-141.48;100.00;69781.59;5203110;28;20481;-68
2022/09/16 02:54:50;;;;;;;3.30;3.00;;;;;;;-141.48;100.00;69781.59;5203456;28;20029;-70
2022/09/16 02:57:21;;;;;;;6.93;2.70;;;;;;;-141.48;100.00;69781.59;5186268;28;20112;-68
2022/09/16 02:59:52;;;;;;;2.97;2.83;;;;;;;-141.48;100.00;69781.59;5203875;28;20522;-69
2022/09/16 03:02:24;;;;;;;15.95;3.40;;;;;;;-141.48;100.00;69781.59;5203790;28;20116;-70
2022/09/16 03:04:54;;;;;;;6.07;4.15;;;;;;;-141.48;100.00;69781.59;5202951;28;20037;-67
2022/09/16 03:07:25;;;;;;;13.00;2.95;;;;;;;-141.48;100.00;69781.59;5203665;28;20033;-66
2022/09/16 03:09:56;;;;;;;3.65;3.08;;;;;;;-141.48;100.00;69781.59;5203810;28;20026;-65
2022/09/16 03:12:56;;;;;;;3.60;3.30;;;;;;;-141.48;100.00;69781.59;5185550;28;20127;-67
2022/09/16 03:15:38;;;;;;;3.28;3.08;;;;;;;-141.48;100.00;69781.59;5190320;28;20037;-69
2022/09/16 03:18:15;;;;;;;3.55;3.30;;;;;;;-141.48;100.00;69781.59;5203558;28;20029;-68
2022/09/16 03:21:14;;;;;;;3.80;3.05;;;;;;;-141.48;100.00;69781.59;5203410;28;20029;-68
2022/09/16 03:24:21;;;;;;;4.63;3.55;;;;;;;-141.48;100.00;69781.59;5201350;28;20101;-68
2022/09/16 03:27:00;;;;;;;5.95;3.13;;;;;;;-141.48;100.00;69781.59;5203449;28;20025;-68
2022/09/16 03:29:43;;;;;;;2.97;2.65;;;;;;;-141.48;100.00;69781.59;5203470;28;20112;-68
2022/09/16 03:32:29;;;;;;;3.33;2.97;;;;;;;-141.48;100.00;69781.59;5186889;28;20143;-69
2022/09/16 03:35:29;;;;;;;6.95;3.63;;;;;;;-141.48;100.00;69781.59;5202841;28;20031;-68
2022/09/16 03:38:01;;;;;;;2.78;2.58;;;;;;;-141.48;100.00;69781.59;5203650;28;20057;-68
2022/09/16 03:40:32;;;;;;;4.85;4.30;;;;;;;-141.48;100.00;69781.59;5203286;28;20018;-68
2022/09/16 03:43:14;;;;;;;4.40;3.65;;;;;;;-141.48;100.00;69781.59;5203305;28;20034;-69
2022/09/16 03:45:45;;;;;;;6.32;2.38;;;;;;;-141.48;100.00;69781.59;5203074;28;20056;-69
2022/09/16 03:48:15;;;;;;;13.30;3.85;;;;;;;-141.48;100.00;69781.59;5204745;28;20049;-70
2022/09/16 03:50:46;;;;;;;2.70;2.50;;;;;;;-141.48;100.00;69781.59;5207360;28;20029;-71
2022/09/16 03:53:16;;;;;;;4.95;3.47;;;;;;;-141.48;100.00;69781.59;5206950;28;20021;-67
2022/09/16 03:55:49;;;;;;;7.85;3.35;;;;;;;-141.48;100.00;69781.59;5207173;28;20036;-68
2022/09/16 03:58:20;;;;;;;3.70;3.42;;;;;;;-141.48;100.00;69781.59;5206576;28;20163;-69
2022/09/16 04:00:50;;;;;;;5.28;3.40;;;;;;;-141.48;100.00;69781.59;5207113;28;20116;-69
2022/09/16 04:03:21;;;;;;;2.78;2.58;;;;;;;-141.48;100.00;69781.59;5206961;28;20515;-69
2022/09/16 04:05:55;;;;;;;2.97;2.72;;;;;;;-141.48;100.00;69781.59;5207010;28;20025;-69
2022/09/16 04:08:25;;;;;;;5.43;2.80;;;;;;;-141.48;100.00;69781.59;5244633;22;20061;-92
2022/09/16 04:10:58;;;;;;;5.78;2.67;;;;;;;-141.48;100.00;69781.59;5216728;28;20030;-92
2022/09/16 04:13:30;;;;;;;2.55;2.35;;;;;;;-141.48;100.00;69781.59;5213470;28;20018;-91
2022/09/16 04:16:02;;;;;;;2.33;2.22;;;;;;;-141.48;100.00;69781.59;5211418;28;20025;-92
2022/09/16 04:18:33;;;;;;;4.47;2.63;;;;;;;-141.48;100.00;69781.59;5193928;28;20029;-91
2022/09/16 04:21:04;;;;;;;14.95;5.15;;;;;;;-141.48;100.00;69781.59;5192360;28;20026;-91
2022/09/16 04:23:37;;;;;;;10.68;3.92;;;;;;;-141.48;100.00;69781.59;5190727;28;20029;-90
2022/09/16 04:26:09;;;;;;;9.10;4.18;;;;;;;-141.48;100.00;69781.59;5190886;28;20177;-91
2022/09/16 04:28:39;;;;;;;5.38;3.85;;;;;;;-141.48;100.00;69781.59;5190574;28;20018;-92
2022/09/16 04:31:12;;;;;;;3.55;2.67;;;;;;;-141.48;100.00;69781.59;5191420;28;20025;-92
2022/09/16 04:33:43;;;;;;;4.00;2.83;;;;;;;-141.48;100.00;69781.59;5191719;28;20071;-91
2022/09/16 04:36:15;;;;;;;7.00;3.83;;;;;;;-141.48;100.00;69781.59;5192169;28;20029;-92
2022/09/16 04:38:48;;;;;;;4.15;3.35;;;;;;;-141.48;100.00;69781.59;5194974;28;20034;-93
2022/09/16 04:41:22;;;;;;;4.03;3.65;;;;;;;-141.48;100.00;69781.59;5199671;28;20040;-91
2022/09/16 04:43:56;;;;;;;9.98;2.53;;;;;;;-141.48;100.00;69781.59;5205006;28;20018;-92
2022/09/16 04:46:29;;;;;;;4.90;2.75;;;;;;;-141.48;100.00;69781.59;5194756;28;20059;-92
2022/09/16 04:49:02;;;;;;;5.45;3.25;;;;;;;-141.48;100.00;69781.59;5196630;28;20026;-93
2022/09/16 04:51:39;;;;;;;2.92;2.72;;;;;;;-141.48;100.00;69781.59;5194783;28;20086;-93
2022/09/16 04:54:15;;;;;;;2.90;2.70;;;;;;;-141.48;100.00;69781.59;5194817;28;20090;-94
2022/09/16 04:56:45;;;;;;;2.50;2.30;;;;;;;-141.48;100.00;69781.59;5193335;28;20480;-93
2022/09/16 04:59:16;;;;;;;2.85;2.47;;;;;;;-141.48;100.00;69781.59;5196743;28;20033;-93
2022/09/16 05:01:46;;;;;;;2.80;2.40;;;;;;;-141.48;100.00;69781.59;5210584;28;20029;-92
2022/09/16 05:04:19;;;;;;;5.35;2.65;;;;;;;-141.48;100.00;69781.59;5211388;28;20017;-93
2022/09/16 05:06:50;;;;;;;2.28;2.05;;;;;;;-141.48;100.00;69781.59;5212150;28;20502;-90
2022/09/16 05:09:21;;;;;;;3.67;2.90;;;;;;;-141.48;100.00;69781.59;5213719;28;20017;-91
2022/09/16 05:12:00;;;;;;;4.93;3.22;;;;;;;-141.48;100.00;69781.59;5213596;28;20037;-93
2022/09/16 05:14:30;;;;;;;2.80;2.60;;;;;;;-141.48;100.00;69781.59;5208257;28;20563;-92
2022/09/16 05:17:01;;;;;;;9.60;3.15;;;;;;;-141.48;100.00;69781.59;5194003;28;20125;-93
2022/09/16 05:19:31;;;;;;;1.77;1.73;;;;;;;-141.48;100.00;69781.59;5191004;28;20033;-92
2022/09/16 05:22:05;;;;;;;2.78;1.95;;;;;;;-141.48;100.00;69781.59;5207922;28;20045;-91
2022/09/16 05:24:39;;;;;;;2.13;2.13;;;;;;;-141.48;100.00;69781.59;5210900;28;20442;-91
2022/09/16 05:27:21;;;;;;;4.63;2.25;;;;;;;-141.48;100.00;69781.59;5212681;28;20545;-91
2022/09/16 05:29:51;;;;;;;6.85;2.15;;;;;;;-141.48;100.00;69781.59;5209971;28;20459;-92
2022/09/16 05:32:21;;;;;;;2.17;1.98;;;;;;;-141.48;100.00;69781.59;5207827;28;20021;-91
2022/09/16 05:34:55;;;;;;;4.50;2.08;;;;;;;-141.48;100.00;69781.59;5207906;28;20469;-92
2022/09/16 05:37:25;;;;;;;2.35;2.25;;;;;;;-141.48;100.00;69781.59;5208490;28;20398;-92
2022/09/16 05:39:55;;;;;;;2.58;2.42;;;;;;;-141.48;100.00;69781.59;5209055;28;20029;-93
2022/09/16 05:42:26;;;;;;;8.73;2.42;;;;;;;-141.48;100.00;69781.59;5207609;28;20041;-91
2022/09/16 05:44:56;;;;;;;2.40;2.30;;;;;;;-141.48;100.00;69781.59;5207188;28;20071;-89
2022/09/16 05:47:27;;;;;;;7.43;2.30;;;;;;;-141.48;100.00;69781.59;5205999;28;20030;-90
2022/09/16 05:49:57;;;;;;;2.63;2.42;;;;;;;-141.48;100.00;69781.59;5205686;28;20109;-91
2022/09/16 05:52:27;;;;;;;6.28;2.22;;;;;;;-141.48;100.00;69781.59;5207455;28;20154;-90
2022/09/16 05:55:01;;;;;;;3.95;2.90;;;;;;;-141.48;100.00;69781.59;5219343;28;20021;-90
2022/09/16 05:57:31;;;;;;;6.13;3.65;;;;;;;-141.48;100.00;69781.59;5224188;28;20018;-91
2022/09/16 06:00:04;;;;;;;4.03;2.40;;;;;;;-141.48;100.00;69781.59;5224088;28;20036;-91
2022/09/16 06:02:34;;;;;;;2.63;1.85;;;;;;;-141.48;100.00;69781.59;5215425;28;20052;-90
2022/09/16 06:05:05;;;;;;;8.93;2.17;;;;;;;-141.48;100.00;69781.59;5220968;28;20030;-91
2022/09/16 06:07:35;;;;;;;4.28;2.45;;;;;;;-141.48;100.00;69781.59;5225343;28;20018;-90
2022/09/16 06:10:06;;;;;;;2.63;2.42;;;;;;;-141.48;100.00;69781.59;5224567;28;20009;-92
2022/09/16 06:12:37;;;;;;;4.97;2.72;;;;;;;-141.48;100.00;69781.59;5218327;28;20024;-92
2022/09/16 06:15:10;;;;;;;3.72;2.45;;;;;;;-141.48;100.00;69781.59;5213550;28;20036;-92
2022/09/16 06:17:40;;;;;;;2.88;2.40;;;;;;;-141.48;100.00;69781.59;5210564;28;20021;-92
2022/09/16 06:20:13;;;;;;;1.85;1.80;;;;;;;-141.48;100.00;69781.59;5209080;28;20079;-91
2022/09/16 06:22:53;;;;;;;;;;;;;;;;;;;;;
2022/09/16 06:25:24;;;;;;;3.80;2.63;;;;;;;-141.48;100.00;69781.59;5212751;28;20123;-91
2022/09/16 06:27:55;;;;;;;2.35;2.10;;;;;;;-141.48;100.00;69781.59;5208536;28;20384;-91
2022/09/16 06:30:25;;;;;;;4.13;2.78;;;;;;;-141.48;100.00;69781.59;5212026;28;20087;-91
2022/09/16 06:32:55;;;;;;;3.45;3.25;;;;;;;-141.48;100.00;69781.59;5212265;28;20025;-93
2022/09/16 06:35:26;;;;;;;3.65;2.85;;;;;;;-141.48;100.00;69781.59;5211004;28;20025;-92
2022/09/16 06:38:00;;;;;;;4.68;3.30;;;;;;;-141.48;100.00;69781.59;5210521;28;20133;-93
2022/09/16 06:40:50;;;;;;;3.55;2.60;;;;;;;-141.48;100.00;69781.59;5214755;28;20045;-94
2022/09/16 06:43:22;;;;;;;2.55;2.22;;;;;;;-141.48;100.00;69781.59;5214865;28;20158;-93
2022/09/16 06:46:32;;;;;;;3.22;2.92;;;;;;;-141.48;100.00;69781.59;5221635;28;20475;-92
2022/09/16 06:49:28;;;;;;;;;;;;;;;-141.48;100.00;69781.59;5145562;28;20050;-93
2022/09/16 06:52:39;;;;;;;;;;;;;;;;;;;;;
2022/09/16 06:55:13;;;;;;;1.92;1.83;;;;;;;-141.48;100.00;69781.59;5155219;28;20063;-91
2022/09/16 06:57:43;;;;;;;3.92;3.58;;;;;;;-141.48;100.00;69781.59;5179424;28;20046;-92
2022/09/16 07:00:13;;;;;;;4.30;3.95;;;;;;;-141.48;100.00;69781.59;5213544;28;20069;-92
2022/09/16 07:02:44;;;;;;;2.83;2.63;;;;;;;-141.48;100.00;69781.59;5211506;28;20533;-94
2022/09/16 07:05:15;;;;;;;2.20;2.10;;;;;;;-141.48;100.00;69781.59;5223927;28;20018;-93
2022/09/16 07:07:51;;;;;;;2.10;2.10;;;;;;;-141.48;100.00;69781.59;5219538;28;20030;-95
2022/09/16 07:10:29;;;;;;;5.13;2.72;;;;;;;-141.48;100.00;69781.59;5221068;28;20087;-94
2022/09/16 07:13:00;;;;;;;2.58;2.38;;;;;;;-141.48;100.00;69781.59;5217617;28;20025;-94
2022/09/16 07:15:41;;;;;;;6.57;3.33;;;;;;;-141.48;100.00;69781.59;5216100;28;20105;-94
2022/09/16 07:18:25;;;;;;;11.63;2.75;;;;;;;-141.48;100.00;69781.59;5225307;28;20025;-95
2022/09/16 07:21:10;;;;;;;2.17;1.90;;;;;;;-141.48;100.00;69781.59;5215128;28;20158;-94
2022/09/16 07:23:42;;;;;;;1.77;1.67;;;;;;;-141.48;100.00;69781.59;5213857;28;20438;-93
2022/09/16 07:26:18;;;;;;;4.65;2.47;;;;;;;-141.48;100.00;69781.59;5211101;28;20032;-93
2022/09/16 07:28:49;;;;;;;2.67;2.08;;;;;;;-141.48;100.00;69781.59;5212122;28;20037;-92
2022/09/16 07:34:36;;;;;;;2.50;2.40;;;;;;;-141.48;100.00;69781.59;5203084;28;20045;-92
2022/09/16 07:37:07;;;;;;;2.78;2.58;;;;;;;-141.48;100.00;69781.59;5215416;28;20029;-93
2022/09/16 07:39:47;;;;;;;2.10;1.98;;;;;;;-141.48;100.00;69781.59;5212864;28;20026;-93
2022/09/16 07:42:27;;;;;;;3.00;2.80;;;;;;;-141.48;100.00;69781.59;5215622;28;20036;-91
2022/09/16 07:45:10;;;;;;;6.18;2.85;;;;;;;-141.48;100.00;69781.59;5211575;28;20061;-92
2022/09/16 07:47:50;;;;;;;3.38;1.60;;;;;;;-141.48;100.00;69781.59;5219205;28;20024;-92
2022/09/16 07:50:28;;;;;;;4.07;3.75;;;;;;;-141.48;100.00;69781.59;5213967;28;20014;-92
2022/09/16 07:52:59;;;;;;;2.83;2.63;;;;;;;-141.48;100.00;69781.59;5223447;28;20088;-91
2022/09/16 07:55:29;;;;;;;2.03;1.92;;;;;;;-141.48;100.00;69781.59;5220473;28;20025;-90
2022/09/16 07:58:05;;;;;;;5.43;2.63;;;;;;;-141.48;100.00;69781.59;5219167;28;20144;-91
2022/09/16 08:00:41;;;;;;;3.00;2.80;;;;;;;-141.48;100.00;69781.59;5221462;28;20101;-90
2022/09/16 08:03:14;;;;;;;2.60;2.17;;;;;;;-141.48;100.00;69781.59;5219984;28;20048;-90
2022/09/16 08:05:45;;;;;;;2.58;2.38;;;;;;;-141.48;100.00;69781.59;5217866;28;20041;-90
2022/09/16 08:08:15;;;;;;;6.65;3.38;;;;;;;-141.48;100.00;69781.59;5209745;28;20039;-91
2022/09/16 08:10:56;;;;;;;2.22;2.08;;;;;;;-141.48;100.00;69781.59;5211629;28;20013;-90
2022/09/16 08:13:28;;;;;;;7.00;3.30;;;;;;;-141.48;100.00;69781.59;5212166;28;20075;-91
2022/09/16 08:16:01;;;;;;;2.45;2.25;;;;;;;-141.48;100.00;69781.59;5211765;28;20021;-91
2022/09/16 08:18:32;;;;;;;3.90;1.73;;;;;;;-141.48;100.00;69781.59;5209423;28;20033;-90
2022/09/16 08:21:07;;;;;;;2.92;2.75;;;;;;;-141.48;100.00;69781.59;5210601;28;20033;-89
2022/09/16 08:23:38;;;;;;;2.72;2.55;;;;;;;-141.48;100.00;69781.59;5211745;28;20390;-91
2022/09/16 08:26:11;;;;;;;4.78;2.67;;;;;;;-141.48;100.00;69781.59;5210142;28;20047;-91
2022/09/16 08:28:43;;;;;;;2.05;2.00;;;;;;;-141.48;100.00;69781.59;5212545;28;20502;-91
2022/09/16 08:31:15;;;;;;;3.00;2.80;;;;;;;-141.48;100.00;69781.59;5210659;28;20036;-91
2022/09/16 08:33:45;;;;;;;3.35;3.10;;;;;;;-141.48;100.00;69781.59;5210101;28;20026;-92
2022/09/16 08:36:19;;;;;;;4.97;2.97;;;;;;;-141.48;100.00;69781.59;5208489;28;20096;-91
2022/09/16 08:38:56;;;;;;;2.70;2.53;;;;;;;-141.48;100.00;69781.59;5207955;28;20094;-91
2022/09/16 08:41:47;;;;;;;9.20;2.85;;;;;;;-141.48;100.00;69781.59;5209393;28;20073;-92
2022/09/16 08:44:45;;;;;;;5.05;2.53;;;;;;;-141.48;100.00;69781.59;5210203;28;20471;-93
2022/09/16 08:47:34;;;;;;;4.63;2.78;;;;;;;-141.48;100.00;69781.59;5210911;28;20525;-92
2022/09/16 08:50:13;;;;;;;3.28;3.05;;;;;;;-141.48;100.00;69781.59;5207097;28;20219;-92
2022/09/16 08:52:45;;;;;;;;;;;;;;;-141.48;100.00;69781.59;5207038;28;20185;-92
2022/09/16 08:55:40;;;;;;;3.92;3.70;;;;;;;-141.48;100.00;69781.59;5208868;28;20280;-91
2022/09/16 08:58:24;;;;;;;4.53;3.50;;;;;;;-141.48;100.00;69781.59;5207463;28;20045;-91
2022/09/16 09:01:03;;;;;;;3.47;2.78;;;;;;;-141.48;100.00;69781.59;5208163;28;20064;-93
2022/09/16 09:03:42;;;;;;;2.88;2.00;;;;;;;-141.48;100.00;69781.59;5208175;28;20455;-92
2022/09/16 09:06:34;;;;;;;3.03;2.77;;;;;;;-141.48;100.00;69781.59;5208145;28;20353;-91
2022/09/16 09:09:42;;;;;;;5.13;2.47;;;;;;;-141.48;100.00;69781.59;5208037;28;20056;-91
2022/09/16 09:12:39;;;;;;;3.95;3.47;;;;;;;-141.48;100.00;69781.59;5204913;28;20116;-92
2022/09/16 09:15:50;;;;;;;3.05;2.15;;;;;;;-141.48;100.00;69781.59;5201923;28;20026;-92
2022/09/16 09:19:03;;;;;;;3.83;3.47;;;;;;;-141.48;100.00;69781.59;5191769;28;20029;-92
2022/09/16 09:25:58;;;;;;;3.55;3.35;;;;;;;-141.48;100.00;69781.59;5115333;29;20034;-91
2022/09/16 09:28:48;;;;;;;3.30;3.00;;;;;;;-141.48;100.00;69781.59;5097561;29;20050;-91
2022/09/16 09:35:46;;;;;;;2.40;2.30;;;;;;;-141.48;100.00;69781.59;5096301;29;20028;-92
2022/09/16 09:52:35;;;;;;;6.97;2.58;;;;;;;-141.48;100.00;69781.59;5093093;28;20176;-91
2022/09/16 09:55:26;;;;;;;2.22;2.05;;;;;;;-141.48;100.00;69781.59;5155314;28;20038;-91
2022/09/16 09:58:12;;;;;;;2.30;2.08;;;;;;;-141.48;100.00;69781.59;5150282;28;20191;-89
2022/09/16 10:00:45;;;;;;;2.67;1.73;;;;;;;-141.48;100.00;69781.59;5164310;28;20060;-91
2022/09/16 10:03:20;;;;;;;1.95;1.73;;;;;;;-141.48;100.00;69781.59;5170868;28;20042;-91
2022/09/16 10:05:51;;;;;;;3.50;2.15;;;;;;;-141.48;100.00;69781.59;5193128;28;20352;-91
2022/09/16 10:08:35;;;;;;;1.33;1.33;;;;;;;-141.48;100.00;69781.59;5279573;22;20084;-83
2022/09/16 10:11:18;;;;;;;2.42;2.33;;;;;;;-141.48;100.00;69781.59;5206458;28;20036;-83
2022/09/16 10:13:56;;;;;;;1.67;1.55;;;;;;;-141.48;100.00;69781.59;5205086;28;20104;-83
2022/09/16 10:16:33;;;;;;;2.25;1.60;;;;;;;-141.48;100.00;69781.59;5204463;28;20025;-82
2022/09/16 10:19:15;;;;;;;1.98;1.80;;;;;;;-141.48;100.00;69781.59;5203357;28;20026;-82
2022/09/16 10:21:52;;;;;;;8.40;3.00;;;;;;;-141.48;100.00;69781.59;5202699;28;20033;-84
2022/09/16 10:24:33;;;;;;;4.10;2.30;;;;;;;-141.48;100.00;69781.59;5201609;28;20116;-81
2022/09/16 10:27:25;;;;;;;2.85;2.72;;;;;;;-141.48;100.00;69781.59;5222131;28;20462;-83
2022/09/16 10:30:02;;;;;;;2.15;1.98;;;;;;;-141.48;100.00;69781.59;5217478;28;20104;-83
2022/09/16 10:32:57;;;;;;;3.53;2.63;;;;;;;-141.48;100.00;69781.59;5200975;28;20033;-81
2022/09/16 10:35:31;;;;;;;11.13;3.15;;;;;;;-141.48;100.00;69781.59;5219726;28;20033;-81
2022/09/16 10:38:04;;;;;;;4.13;2.10;;;;;;;-141.48;100.00;69781.59;5218772;28;20022;-80
2022/09/16 10:40:35;;;;;;;5.43;2.50;;;;;;;-141.48;100.00;69781.59;5203573;28;20017;-81
2022/09/16 10:43:13;;;;;;;4.90;2.10;;;;;;;-141.48;100.00;69781.59;5222077;28;20041;-82
2022/09/16 10:45:50;;;;;;;3.47;1.90;;;;;;;-141.48;100.00;69781.59;5223689;28;20052;-82
2022/09/16 10:48:25;;;;;;;2.05;1.95;;;;;;;-141.48;100.00;69781.59;5224142;28;20056;-81
2022/09/16 10:50:56;;;;;;;5.07;3.13;;;;;;;-141.48;100.00;69781.59;5221877;28;20022;-82
2022/09/16 10:53:39;;;;;;;5.60;2.63;;;;;;;-141.48;100.00;69781.59;5220873;28;20089;-81
2022/09/16 10:56:18;;;;;;;2.30;2.13;;;;;;;-141.48;100.00;69781.59;5213875;28;20450;-81
2022/09/16 10:59:03;;;;;;;1.95;1.60;;;;;;;-141.48;100.00;69781.59;5214818;28;20056;-79
2022/09/16 11:01:55;;;;;;;2.45;2.35;;;;;;;-141.48;100.00;69781.59;5214691;28;20130;-80
2022/09/16 11:04:43;;;;;;;1.60;1.60;;;;;;;-141.48;100.00;69781.59;5214781;28;20025;-82
2022/09/16 11:07:32;;;;;;;1.63;1.63;;;;;;;-141.48;100.00;69781.59;5207729;28;20105;-85
2022/09/16 11:10:31;;;;;;;1.77;1.63;;;;;;;-141.48;100.00;69781.59;5157614;28;20027;-83
2022/09/16 11:13:14;;;;;;;1.98;1.55;;;;;;;-141.48;100.00;69781.59;5155207;28;20129;-81
2022/09/16 11:15:48;;;;;;;1.65;1.58;;;;;;;-141.48;100.00;69781.59;5160661;28;20044;-81
2022/09/16 11:18:53;;;;;;;2.85;1.80;;;;;;;-141.48;100.00;69781.59;5178126;28;20014;-82
2022/09/16 11:21:35;;;;;;;1.42;1.40;;;;;;;-141.48;100.00;69781.59;5159767;28;20050;-80
2022/09/16 11:24:35;;;;;;;1.73;1.63;;;;;;;-141.48;100.00;69781.59;5160157;28;20038;-80
2022/09/16 11:27:11;;;;;;;4.15;2.28;;;;;;;-141.48;100.00;69781.59;5142240;28;20109;-81
2022/09/16 11:30:03;;;;;;;2.47;2.38;;;;;;;-141.48;100.00;69781.59;5161828;28;20026;-82
2022/09/16 11:33:09;;;;;;;1.98;1.88;;;;;;;-141.48;100.00;69781.59;5162866;28;20138;-82
2022/09/16 11:35:39;;;;;;;2.65;2.10;;;;;;;-141.48;100.00;69781.59;5176744;28;20035;-80
2022/09/16 11:38:25;;;;;;;1.33;1.33;;;;;;;-141.48;100.00;69781.59;5175923;28;20030;-80
2022/09/16 11:41:02;;;;;;;2.05;1.95;;;;;;;-141.48;100.00;69781.59;5174139;28;20022;-81
2022/09/16 11:44:01;;;;;;;1.88;1.83;;;;;;;-141.48;100.00;69781.59;5176895;28;20030;-82
2022/09/16 11:46:55;;;;;;;2.47;2.38;;;;;;;-141.48;100.00;69781.59;5188444;28;20034;-81
2022/09/16 11:50:07;;;;;;;4.13;2.70;;;;;;;-141.48;100.00;69781.59;5220499;28;20221;-81
2022/09/16 11:53:16;;;;;;;2.05;2.00;;;;;;;-141.48;100.00;69781.59;5203271;28;20060;-79
2022/09/16 11:56:11;;;;;;;1.67;1.58;;;;;;;-141.48;100.00;69781.59;5220641;28;20029;-83
2022/09/16 11:59:17;;;;;;;2.10;2.00;;;;;;;-141.48;100.00;69781.59;5220895;28;20033;-83
2022/09/16 12:02:00;;;;;;;2.30;1.67;;;;;;;-141.48;100.00;69781.59;5183772;28;20046;-81
2022/09/16 12:04:39;;;;;;;3.45;2.38;;;;;;;-141.48;100.00;69781.59;5220564;28;20032;-83
2022/09/16 12:07:16;;;;;;;2.17;2.08;;;;;;;-141.48;100.00;69781.59;5207485;28;20044;-83
2022/09/16 12:09:57;;;;;;;2.42;2.22;;;;;;;-141.48;100.00;69781.59;5202737;28;20017;-82
2022/09/16 12:12:43;;;;;;;2.58;2.38;;;;;;;-141.48;100.00;69781.59;5204616;28;20025;-83
2022/09/16 12:15:13;;;;;;;2.78;1.83;;;;;;;-141.48;100.00;69781.59;5186411;28;20021;-82
2022/09/16 12:17:52;;;;;;;6.10;1.65;;;;;;;-141.48;100.00;69781.59;5168236;28;20214;-83
2022/09/16 12:20:34;;;;;;;5.05;2.33;;;;;;;-141.48;100.00;69781.59;5183877;28;20014;-83
2022/09/16 12:23:21;;;;;;;2.22;2.13;;;;;;;-141.48;100.00;69781.59;5190961;28;20022;-83
2022/09/16 12:26:15;;;;;;;1.70;1.60;;;;;;;-141.48;100.00;69781.59;5183230;28;20038;-81
2022/09/16 12:29:08;;;;;;;1.90;1.80;;;;;;;-141.48;100.00;69781.59;5183277;28;20105;-82
2022/09/16 12:32:00;;;;;;;2.08;1.92;;;;;;;-141.48;100.00;69781.59;5163729;28;20022;-82